Terminal Aerodrome Forecast
Issued by NWS

Home | Current Version | Previous Version | Text Only | Print | Product List | Glossary On
Versions: 1 2 3 4 5 6 7 8 9 10 11 12 13 14 15 16 17 18 19
000
FTUS41 KGYX 251720
TAFHIE
TAF
KHIE 251720Z 2518/2618 23004KT P6SM OVC050
     FM252100 VRB03KT P6SM -SHRA OVC050
     FM260600 VRB03KT 4SM -SHRA BR OVC025
     FM261300 26010G16KT P6SM OVC050=

USA.gov is the U.S. government's official web portal to all federal, state and local government web resources and services.